sensor_id;sensor_type;location;lat;lon;timestamp;temperature;humidity
17381;DHT22;8808;52.478;13.378;2022-08-19T00:00:16;22.00;99.90
17381;DHT22;8808;52.478;13.378;2022-08-19T00:02:44;21.90;99.90
17381;DHT22;8808;52.478;13.378;2022-08-19T00:05:13;21.90;99.90
17381;DHT22;8808;52.478;13.378;2022-08-19T00:07:41;21.80;99.90
17381;DHT22;8808;52.478;13.378;2022-08-19T00:10:10;21.90;99.90
17381;DHT22;8808;52.478;13.378;2022-08-19T00:12:37;21.90;99.90
17381;DHT22;8808;52.478;13.378;2022-08-19T00:15:06;21.90;99.90
17381;DHT22;8808;52.478;13.378;2022-08-19T00:17:38;22.10;99.90
17381;DHT22;8808;52.478;13.378;2022-08-19T00:20:07;22.20;99.90
17381;DHT22;8808;52.478;13.378;2022-08-19T00:22:34;22.00;99.90
17381;DHT22;8808;52.478;13.378;2022-08-19T00:25:01;22.10;99.90
17381;DHT22;8808;52.478;13.378;2022-08-19T00:27:29;22.00;99.90
17381;DHT22;8808;52.478;13.378;2022-08-19T00:29:56;22.00;99.90
17381;DHT22;8808;52.478;13.378;2022-08-19T00:32:24;22.00;99.90
17381;DHT22;8808;52.478;13.378;2022-08-19T00:34:52;22.00;99.90
17381;DHT22;8808;52.478;13.378;2022-08-19T00:37:19;22.00;99.90
17381;DHT22;8808;52.478;13.378;2022-08-19T00:39:48;22.10;99.90
17381;DHT22;8808;52.478;13.378;2022-08-19T00:42:17;22.00;99.90
17381;DHT22;8808;52.478;13.378;2022-08-19T00:44:45;22.10;99.90
17381;DHT22;8808;52.478;13.378;2022-08-19T00:47:13;21.90;99.90
17381;DHT22;8808;52.478;13.378;2022-08-19T00:49:43;22.00;99.90
17381;DHT22;8808;52.478;13.378;2022-08-19T00:52:13;22.40;99.90
17381;DHT22;8808;52.478;13.378;2022-08-19T00:54:42;22.20;99.90
17381;DHT22;8808;52.478;13.378;2022-08-19T00:57:12;22.10;99.90
17381;DHT22;8808;52.478;13.378;2022-08-19T00:59:46;22.00;99.90
17381;DHT22;8808;52.478;13.378;2022-08-19T01:02:14;22.00;99.90
17381;DHT22;8808;52.478;13.378;2022-08-19T01:04:41;21.90;99.90
17381;DHT22;8808;52.478;13.378;2022-08-19T01:07:08;21.80;99.90
17381;DHT22;8808;52.478;13.378;2022-08-19T01:09:36;21.70;99.90
17381;DHT22;8808;52.478;13.378;2022-08-19T01:12:03;21.70;99.90
17381;DHT22;8808;52.478;13.378;2022-08-19T01:14:30;21.70;99.90
17381;DHT22;8808;52.478;13.378;2022-08-19T01:16:59;21.80;99.90
17381;DHT22;8808;52.478;13.378;2022-08-19T01:19:29;21.80;99.90
17381;DHT22;8808;52.478;13.378;2022-08-19T01:22:01;21.80;99.90
17381;DHT22;8808;52.478;13.378;2022-08-19T01:24:30;21.80;99.90
17381;DHT22;8808;52.478;13.378;2022-08-19T01:26:57;21.80;99.90
17381;DHT22;8808;52.478;13.378;2022-08-19T01:29:24;21.90;99.90
17381;DHT22;8808;52.478;13.378;2022-08-19T01:31:51;21.90;99.90
17381;DHT22;8808;52.478;13.378;2022-08-19T01:34:19;21.80;99.90
17381;DHT22;8808;52.478;13.378;2022-08-19T01:36:47;21.80;99.90
17381;DHT22;8808;52.478;13.378;2022-08-19T01:39:18;21.80;99.90
17381;DHT22;8808;52.478;13.378;2022-08-19T01:41:47;21.80;99.90
17381;DHT22;8808;52.478;13.378;2022-08-19T01:44:15;21.80;99.90
17381;DHT22;8808;52.478;13.378;2022-08-19T01:46:43;21.90;99.90
17381;DHT22;8808;52.478;13.378;2022-08-19T01:49:10;21.90;99.90
17381;DHT22;8808;52.478;13.378;2022-08-19T01:51:37;21.80;99.90
17381;DHT22;8808;52.478;13.378;2022-08-19T01:54:04;21.70;99.90
17381;DHT22;8808;52.478;13.378;2022-08-19T01:56:31;21.70;99.90
17381;DHT22;8808;52.478;13.378;2022-08-19T01:59:01;21.70;99.90
17381;DHT22;8808;52.478;13.378;2022-08-19T02:01:29;21.70;99.90
17381;DHT22;8808;52.478;13.378;2022-08-19T02:03:57;21.60;99.90
17381;DHT22;8808;52.478;13.378;2022-08-19T02:06:26;21.60;99.90
17381;DHT22;8808;52.478;13.378;2022-08-19T02:08:53;21.70;99.90
17381;DHT22;8808;52.478;13.378;2022-08-19T02:11:22;21.80;99.90
17381;DHT22;8808;52.478;13.378;2022-08-19T02:13:52;21.80;99.90
17381;DHT22;8808;52.478;13.378;2022-08-19T02:16:21;21.90;99.90
17381;DHT22;8808;52.478;13.378;2022-08-19T02:18:48;21.90;99.90
17381;DHT22;8808;52.478;13.378;2022-08-19T02:21:15;22.10;99.90
17381;DHT22;8808;52.478;13.378;2022-08-19T02:23:42;22.80;99.90
17381;DHT22;8808;52.478;13.378;2022-08-19T02:26:09;23.00;99.90
17381;DHT22;8808;52.478;13.378;2022-08-19T02:28:36;22.70;99.90
17381;DHT22;8808;52.478;13.378;2022-08-19T02:31:08;22.80;99.90
17381;DHT22;8808;52.478;13.378;2022-08-19T02:33:36;22.60;99.90
17381;DHT22;8808;52.478;13.378;2022-08-19T02:36:04;22.20;99.90
17381;DHT22;8808;52.478;13.378;2022-08-19T02:38:31;23.10;99.90
17381;DHT22;8808;52.478;13.378;2022-08-19T02:40:59;22.60;99.90
17381;DHT22;8808;52.478;13.378;2022-08-19T02:43:29;22.40;99.90
17381;DHT22;8808;52.478;13.378;2022-08-19T02:45:56;22.30;99.90
17381;DHT22;8808;52.478;13.378;2022-08-19T02:48:24;22.60;99.90
17381;DHT22;8808;52.478;13.378;2022-08-19T02:50:53;22.40;99.90
17381;DHT22;8808;52.478;13.378;2022-08-19T02:53:22;22.20;99.90
17381;DHT22;8808;52.478;13.378;2022-08-19T02:55:50;21.80;99.90
17381;DHT22;8808;52.478;13.378;2022-08-19T02:58:18;21.70;99.90
17381;DHT22;8808;52.478;13.378;2022-08-19T03:00:46;21.60;99.90
17381;DHT22;8808;52.478;13.378;2022-08-19T03:03:14;21.70;99.90
17381;DHT22;8808;52.478;13.378;2022-08-19T03:05:41;21.60;99.90
17381;DHT22;8808;52.478;13.378;2022-08-19T03:08:13;21.50;99.90
17381;DHT22;8808;52.478;13.378;2022-08-19T03:10:41;21.60;99.90
17381;DHT22;8808;52.478;13.378;2022-08-19T03:13:10;21.50;99.90
17381;DHT22;8808;52.478;13.378;2022-08-19T03:15:40;21.60;99.90
17381;DHT22;8808;52.478;13.378;2022-08-19T03:18:07;21.50;99.90
17381;DHT22;8808;52.478;13.378;2022-08-19T03:20:41;21.50;99.90
17381;DHT22;8808;52.478;13.378;2022-08-19T03:23:09;21.50;99.90
17381;DHT22;8808;52.478;13.378;2022-08-19T03:25:39;21.50;99.90
17381;DHT22;8808;52.478;13.378;2022-08-19T03:28:09;21.50;99.90
17381;DHT22;8808;52.478;13.378;2022-08-19T03:30:35;21.50;99.90
17381;DHT22;8808;52.478;13.378;2022-08-19T03:33:02;21.50;99.90
17381;DHT22;8808;52.478;13.378;2022-08-19T03:37:58;21.40;99.90
17381;DHT22;8808;52.478;13.378;2022-08-19T03:40:26;21.40;99.90
17381;DHT22;8808;52.478;13.378;2022-08-19T03:42:55;21.60;99.90
17381;DHT22;8808;52.478;13.378;2022-08-19T03:45:22;21.40;99.90
17381;DHT22;8808;52.478;13.378;2022-08-19T03:47:49;21.40;99.90
17381;DHT22;8808;52.478;13.378;2022-08-19T03:50:16;21.50;99.90
17381;DHT22;8808;52.478;13.378;2022-08-19T03:52:48;21.40;99.90
17381;DHT22;8808;52.478;13.378;2022-08-19T03:55:16;21.50;99.90
17381;DHT22;8808;52.478;13.378;2022-08-19T03:57:44;21.40;99.90
17381;DHT22;8808;52.478;13.378;2022-08-19T04:00:15;21.50;99.90
17381;DHT22;8808;52.478;13.378;2022-08-19T04:02:42;21.30;99.90
17381;DHT22;8808;52.478;13.378;2022-08-19T04:05:09;21.50;99.90
17381;DHT22;8808;52.478;13.378;2022-08-19T04:07:36;21.50;99.90
17381;DHT22;8808;52.478;13.378;2022-08-19T04:10:03;21.50;99.90
17381;DHT22;8808;52.478;13.378;2022-08-19T04:12:31;21.40;99.90
17381;DHT22;8808;52.478;13.378;2022-08-19T04:14:59;21.30;99.90
17381;DHT22;8808;52.478;13.378;2022-08-19T04:17:26;21.40;99.90
17381;DHT22;8808;52.478;13.378;2022-08-19T04:19:53;21.40;99.90
17381;DHT22;8808;52.478;13.378;2022-08-19T04:22:20;21.40;99.90
17381;DHT22;8808;52.478;13.378;2022-08-19T04:24:47;21.50;99.90
17381;DHT22;8808;52.478;13.378;2022-08-19T04:27:13;21.60;99.90
17381;DHT22;8808;52.478;13.378;2022-08-19T04:29:41;21.50;99.90
17381;DHT22;8808;52.478;13.378;2022-08-19T04:32:10;21.60;99.90
17381;DHT22;8808;52.478;13.378;2022-08-19T04:34:37;21.40;99.90
17381;DHT22;8808;52.478;13.378;2022-08-19T04:37:05;21.40;99.90
17381;DHT22;8808;52.478;13.378;2022-08-19T04:39:37;21.60;99.90
17381;DHT22;8808;52.478;13.378;2022-08-19T04:42:22;21.50;99.90
17381;DHT22;8808;52.478;13.378;2022-08-19T04:45:09;21.40;99.90
17381;DHT22;8808;52.478;13.378;2022-08-19T04:47:38;21.60;99.90
17381;DHT22;8808;52.478;13.378;2022-08-19T04:50:07;21.50;99.90
17381;DHT22;8808;52.478;13.378;2022-08-19T04:52:34;21.40;99.90
17381;DHT22;8808;52.478;13.378;2022-08-19T04:55:01;21.50;99.90
17381;DHT22;8808;52.478;13.378;2022-08-19T04:57:28;21.60;99.90
17381;DHT22;8808;52.478;13.378;2022-08-19T04:59:55;21.60;99.90
17381;DHT22;8808;52.478;13.378;2022-08-19T05:02:22;21.60;99.90
17381;DHT22;8808;52.478;13.378;2022-08-19T05:04:56;21.80;99.90
17381;DHT22;8808;52.478;13.378;2022-08-19T05:07:25;22.10;99.90
17381;DHT22;8808;52.478;13.378;2022-08-19T05:09:52;22.00;99.90
17381;DHT22;8808;52.478;13.378;2022-08-19T05:12:19;22.10;99.90
17381;DHT22;8808;52.478;13.378;2022-08-19T05:14:46;21.90;99.90
17381;DHT22;8808;52.478;13.378;2022-08-19T05:17:15;22.20;99.90
17381;DHT22;8808;52.478;13.378;2022-08-19T05:19:42;22.20;99.90
17381;DHT22;8808;52.478;13.378;2022-08-19T05:22:27;22.40;99.90
17381;DHT22;8808;52.478;13.378;2022-08-19T05:25:03;22.50;99.90
17381;DHT22;8808;52.478;13.378;2022-08-19T05:27:30;23.20;99.90
17381;DHT22;8808;52.478;13.378;2022-08-19T05:29:57;22.90;99.90
17381;DHT22;8808;52.478;13.378;2022-08-19T05:32:24;22.60;99.90
17381;DHT22;8808;52.478;13.378;2022-08-19T05:34:51;22.70;99.90
17381;DHT22;8808;52.478;13.378;2022-08-19T05:37:18;22.70;99.90
17381;DHT22;8808;52.478;13.378;2022-08-19T05:39:46;22.70;99.90
17381;DHT22;8808;52.478;13.378;2022-08-19T05:42:14;23.20;99.90
17381;DHT22;8808;52.478;13.378;2022-08-19T05:44:43;23.00;99.90
17381;DHT22;8808;52.478;13.378;2022-08-19T05:47:12;22.90;99.90
17381;DHT22;8808;52.478;13.378;2022-08-19T05:49:40;22.90;99.90
17381;DHT22;8808;52.478;13.378;2022-08-19T05:52:12;22.90;99.90
17381;DHT22;8808;52.478;13.378;2022-08-19T05:54:41;22.90;99.90
17381;DHT22;8808;52.478;13.378;2022-08-19T05:57:10;22.50;99.90
17381;DHT22;8808;52.478;13.378;2022-08-19T05:59:37;22.40;99.90
17381;DHT22;8808;52.478;13.378;2022-08-19T06:02:05;22.30;99.90
17381;DHT22;8808;52.478;13.378;2022-08-19T06:04:32;22.30;99.90
17381;DHT22;8808;52.478;13.378;2022-08-19T06:06:59;22.20;99.90
17381;DHT22;8808;52.478;13.378;2022-08-19T06:09:27;22.20;99.90
17381;DHT22;8808;52.478;13.378;2022-08-19T06:11:56;22.10;99.90
17381;DHT22;8808;52.478;13.378;2022-08-19T06:14:28;22.40;99.90
17381;DHT22;8808;52.478;13.378;2022-08-19T06:16:56;22.20;99.90
17381;DHT22;8808;52.478;13.378;2022-08-19T06:19:23;22.20;99.90
17381;DHT22;8808;52.478;13.378;2022-08-19T06:21:51;22.20;99.90
17381;DHT22;8808;52.478;13.378;2022-08-19T06:24:21;22.30;99.90
17381;DHT22;8808;52.478;13.378;2022-08-19T06:26:51;22.10;99.90
17381;DHT22;8808;52.478;13.378;2022-08-19T06:29:20;22.00;99.90
17381;DHT22;8808;52.478;13.378;2022-08-19T06:31:50;21.90;99.90
17381;DHT22;8808;52.478;13.378;2022-08-19T06:34:19;22.00;99.90
17381;DHT22;8808;52.478;13.378;2022-08-19T06:36:48;22.20;99.90
17381;DHT22;8808;52.478;13.378;2022-08-19T06:39:17;22.10;99.90
17381;DHT22;8808;52.478;13.378;2022-08-19T06:41:46;22.20;99.90
17381;DHT22;8808;52.478;13.378;2022-08-19T06:44:14;22.30;99.90
17381;DHT22;8808;52.478;13.378;2022-08-19T06:46:41;22.20;99.90
17381;DHT22;8808;52.478;13.378;2022-08-19T06:49:10;22.20;99.90
17381;DHT22;8808;52.478;13.378;2022-08-19T06:51:40;22.30;99.90
17381;DHT22;8808;52.478;13.378;2022-08-19T06:54:07;22.40;99.90
17381;DHT22;8808;52.478;13.378;2022-08-19T06:56:34;22.10;99.90
17381;DHT22;8808;52.478;13.378;2022-08-19T06:59:02;22.30;99.90
17381;DHT22;8808;52.478;13.378;2022-08-19T07:01:34;22.30;99.90
17381;DHT22;8808;52.478;13.378;2022-08-19T07:04:03;22.40;99.90
17381;DHT22;8808;52.478;13.378;2022-08-19T07:06:32;22.30;99.90
17381;DHT22;8808;52.478;13.378;2022-08-19T07:08:59;22.50;99.90
17381;DHT22;8808;52.478;13.378;2022-08-19T07:11:26;22.50;99.90
17381;DHT22;8808;52.478;13.378;2022-08-19T07:13:53;22.40;99.90
17381;DHT22;8808;52.478;13.378;2022-08-19T07:16:20;22.60;99.90
17381;DHT22;8808;52.478;13.378;2022-08-19T07:18:48;22.50;99.90
17381;DHT22;8808;52.478;13.378;2022-08-19T07:21:19;22.60;99.90
17381;DHT22;8808;52.478;13.378;2022-08-19T07:23:48;22.60;99.90
17381;DHT22;8808;52.478;13.378;2022-08-19T07:26:17;22.60;99.90
17381;DHT22;8808;52.478;13.378;2022-08-19T07:28:46;23.00;99.90
17381;DHT22;8808;52.478;13.378;2022-08-19T07:31:14;22.90;99.90
17381;DHT22;8808;52.478;13.378;2022-08-19T07:33:42;22.90;99.90
17381;DHT22;8808;52.478;13.378;2022-08-19T07:36:10;23.00;99.90
17381;DHT22;8808;52.478;13.378;2022-08-19T07:38:39;22.90;99.90
17381;DHT22;8808;52.478;13.378;2022-08-19T07:41:09;22.80;99.90
17381;DHT22;8808;52.478;13.378;2022-08-19T07:43:37;22.80;99.90
17381;DHT22;8808;52.478;13.378;2022-08-19T07:46:04;22.90;99.90
17381;DHT22;8808;52.478;13.378;2022-08-19T07:48:31;22.80;99.90
17381;DHT22;8808;52.478;13.378;2022-08-19T07:51:00;22.90;99.90
17381;DHT22;8808;52.478;13.378;2022-08-19T07:53:29;22.90;99.90
17381;DHT22;8808;52.478;13.378;2022-08-19T07:55:56;23.30;99.90
17381;DHT22;8808;52.478;13.378;2022-08-19T07:58:33;23.10;99.90
17381;DHT22;8808;52.478;13.378;2022-08-19T08:01:00;23.10;99.90
17381;DHT22;8808;52.478;13.378;2022-08-19T08:03:28;23.20;99.90
17381;DHT22;8808;52.478;13.378;2022-08-19T08:06:09;23.90;99.90
17381;DHT22;8808;52.478;13.378;2022-08-19T08:08:54;23.50;99.90
17381;DHT22;8808;52.478;13.378;2022-08-19T08:11:45;23.30;99.90
17381;DHT22;8808;52.478;13.378;2022-08-19T08:14:16;23.10;99.90
17381;DHT22;8808;52.478;13.378;2022-08-19T08:16:44;23.00;99.90
17381;DHT22;8808;52.478;13.378;2022-08-19T08:19:11;22.90;99.90
17381;DHT22;8808;52.478;13.378;2022-08-19T08:21:40;22.80;99.90
17381;DHT22;8808;52.478;13.378;2022-08-19T08:24:08;22.90;99.90
17381;DHT22;8808;52.478;13.378;2022-08-19T08:26:35;22.90;99.90
17381;DHT22;8808;52.478;13.378;2022-08-19T08:29:02;22.80;99.90
17381;DHT22;8808;52.478;13.378;2022-08-19T08:31:30;22.90;99.90
17381;DHT22;8808;52.478;13.378;2022-08-19T08:33:58;22.90;99.90
17381;DHT22;8808;52.478;13.378;2022-08-19T08:36:25;22.90;99.90
17381;DHT22;8808;52.478;13.378;2022-08-19T08:38:53;22.90;99.90
17381;DHT22;8808;52.478;13.378;2022-08-19T08:41:28;23.00;99.90
17381;DHT22;8808;52.478;13.378;2022-08-19T08:43:57;22.90;99.90
17381;DHT22;8808;52.478;13.378;2022-08-19T08:46:29;22.90;99.90
17381;DHT22;8808;52.478;13.378;2022-08-19T08:49:02;22.80;99.90
17381;DHT22;8808;52.478;13.378;2022-08-19T08:51:37;22.90;99.90
17381;DHT22;8808;52.478;13.378;2022-08-19T08:54:12;23.00;99.90
17381;DHT22;8808;52.478;13.378;2022-08-19T08:56:39;22.90;99.90
17381;DHT22;8808;52.478;13.378;2022-08-19T08:59:15;23.10;99.90
17381;DHT22;8808;52.478;13.378;2022-08-19T09:01:43;23.10;99.90
17381;DHT22;8808;52.478;13.378;2022-08-19T09:04:12;23.10;99.90
17381;DHT22;8808;52.478;13.378;2022-08-19T09:06:46;23.10;99.90
17381;DHT22;8808;52.478;13.378;2022-08-19T09:09:20;23.00;99.90
17381;DHT22;8808;52.478;13.378;2022-08-19T09:11:58;23.10;99.90
17381;DHT22;8808;52.478;13.378;2022-08-19T09:14:36;23.50;99.90
17381;DHT22;8808;52.478;13.378;2022-08-19T09:17:07;24.20;99.90
17381;DHT22;8808;52.478;13.378;2022-08-19T09:19:46;24.20;99.90
17381;DHT22;8808;52.478;13.378;2022-08-19T09:22:14;24.60;99.90
17381;DHT22;8808;52.478;13.378;2022-08-19T09:24:41;24.90;99.90
17381;DHT22;8808;52.478;13.378;2022-08-19T09:27:08;24.60;99.90
17381;DHT22;8808;52.478;13.378;2022-08-19T09:29:35;24.30;99.90
17381;DHT22;8808;52.478;13.378;2022-08-19T09:32:02;24.60;99.90
17381;DHT22;8808;52.478;13.378;2022-08-19T09:34:29;24.60;99.90
17381;DHT22;8808;52.478;13.378;2022-08-19T09:36:57;24.70;99.90
17381;DHT22;8808;52.478;13.378;2022-08-19T09:39:25;25.10;99.90
17381;DHT22;8808;52.478;13.378;2022-08-19T09:41:52;24.80;99.90
17381;DHT22;8808;52.478;13.378;2022-08-19T09:44:19;24.60;99.90
17381;DHT22;8808;52.478;13.378;2022-08-19T09:46:46;24.20;99.90
17381;DHT22;8808;52.478;13.378;2022-08-19T09:49:14;24.40;99.90
17381;DHT22;8808;52.478;13.378;2022-08-19T09:51:42;25.40;99.90
17381;DHT22;8808;52.478;13.378;2022-08-19T09:54:11;25.50;99.90
17381;DHT22;8808;52.478;13.378;2022-08-19T09:56:37;25.30;99.90
17381;DHT22;8808;52.478;13.378;2022-08-19T09:59:04;25.60;99.90
17381;DHT22;8808;52.478;13.378;2022-08-19T10:01:32;25.70;99.90
17381;DHT22;8808;52.478;13.378;2022-08-19T10:03:59;26.00;99.90
17381;DHT22;8808;52.478;13.378;2022-08-19T10:06:29;25.70;99.90
17381;DHT22;8808;52.478;13.378;2022-08-19T10:08:58;25.80;99.90
17381;DHT22;8808;52.478;13.378;2022-08-19T10:11:27;25.90;99.90
17381;DHT22;8808;52.478;13.378;2022-08-19T10:13:54;25.90;99.90
17381;DHT22;8808;52.478;13.378;2022-08-19T10:16:22;25.90;99.90
17381;DHT22;8808;52.478;13.378;2022-08-19T10:18:49;26.00;99.90
17381;DHT22;8808;52.478;13.378;2022-08-19T10:21:18;26.00;99.90
17381;DHT22;8808;52.478;13.378;2022-08-19T10:23:48;26.00;99.90
17381;DHT22;8808;52.478;13.378;2022-08-19T10:26:16;25.70;99.90
17381;DHT22;8808;52.478;13.378;2022-08-19T10:28:45;25.90;99.90
17381;DHT22;8808;52.478;13.378;2022-08-19T10:31:14;26.00;99.90
17381;DHT22;8808;52.478;13.378;2022-08-19T10:33:43;25.90;99.90
17381;DHT22;8808;52.478;13.378;2022-08-19T10:36:12;26.00;99.90
17381;DHT22;8808;52.478;13.378;2022-08-19T10:38:41;26.00;99.90
17381;DHT22;8808;52.478;13.378;2022-08-19T10:41:12;26.00;99.90
17381;DHT22;8808;52.478;13.378;2022-08-19T10:43:39;25.60;99.90
17381;DHT22;8808;52.478;13.378;2022-08-19T10:46:09;25.30;99.90
17381;DHT22;8808;52.478;13.378;2022-08-19T10:48:36;24.70;99.90
17381;DHT22;8808;52.478;13.378;2022-08-19T10:51:04;24.50;99.90
17381;DHT22;8808;52.478;13.378;2022-08-19T10:53:49;24.10;99.90
17381;DHT22;8808;52.478;13.378;2022-08-19T10:56:16;24.10;99.90
17381;DHT22;8808;52.478;13.378;2022-08-19T10:59:00;24.20;99.90
17381;DHT22;8808;52.478;13.378;2022-08-19T11:01:31;24.40;99.90
17381;DHT22;8808;52.478;13.378;2022-08-19T11:03:59;24.20;99.90
17381;DHT22;8808;52.478;13.378;2022-08-19T11:06:27;24.20;99.90
17381;DHT22;8808;52.478;13.378;2022-08-19T11:08:54;24.50;99.90
17381;DHT22;8808;52.478;13.378;2022-08-19T11:11:22;24.60;99.90
17381;DHT22;8808;52.478;13.378;2022-08-19T11:13:49;24.60;99.90
17381;DHT22;8808;52.478;13.378;2022-08-19T11:16:19;24.50;99.90
17381;DHT22;8808;52.478;13.378;2022-08-19T11:18:50;24.60;99.90
17381;DHT22;8808;52.478;13.378;2022-08-19T11:21:19;24.70;99.90
17381;DHT22;8808;52.478;13.378;2022-08-19T11:23:50;25.00;99.90
17381;DHT22;8808;52.478;13.378;2022-08-19T11:26:18;24.60;99.90
17381;DHT22;8808;52.478;13.378;2022-08-19T11:28:46;24.70;99.90
17381;DHT22;8808;52.478;13.378;2022-08-19T11:31:15;24.40;99.90
17381;DHT22;8808;52.478;13.378;2022-08-19T11:33:44;24.40;99.90
17381;DHT22;8808;52.478;13.378;2022-08-19T11:36:13;24.20;99.90
17381;DHT22;8808;52.478;13.378;2022-08-19T11:38:40;24.20;99.90
17381;DHT22;8808;52.478;13.378;2022-08-19T11:41:08;24.00;99.90
17381;DHT22;8808;52.478;13.378;2022-08-19T11:43:35;23.80;99.90
17381;DHT22;8808;52.478;13.378;2022-08-19T11:46:04;24.10;99.90
17381;DHT22;8808;52.478;13.378;2022-08-19T11:48:32;24.40;99.90
17381;DHT22;8808;52.478;13.378;2022-08-19T11:51:02;24.30;99.90
17381;DHT22;8808;52.478;13.378;2022-08-19T11:53:33;24.40;99.90
17381;DHT22;8808;52.478;13.378;2022-08-19T11:56:01;24.90;99.90
17381;DHT22;8808;52.478;13.378;2022-08-19T11:58:28;24.80;99.90
17381;DHT22;8808;52.478;13.378;2022-08-19T12:00:56;24.50;99.90
17381;DHT22;8808;52.478;13.378;2022-08-19T12:03:23;24.20;99.90
17381;DHT22;8808;52.478;13.378;2022-08-19T12:05:50;24.00;99.90
17381;DHT22;8808;52.478;13.378;2022-08-19T12:08:18;23.80;99.90
17381;DHT22;8808;52.478;13.378;2022-08-19T12:10:46;23.80;99.90
17381;DHT22;8808;52.478;13.378;2022-08-19T12:13:14;23.60;99.90
17381;DHT22;8808;52.478;13.378;2022-08-19T12:15:45;23.80;99.90
17381;DHT22;8808;52.478;13.378;2022-08-19T12:18:12;24.00;99.90
17381;DHT22;8808;52.478;13.378;2022-08-19T12:20:41;24.00;99.90
17381;DHT22;8808;52.478;13.378;2022-08-19T12:23:09;23.80;99.90
17381;DHT22;8808;52.478;13.378;2022-08-19T12:25:36;24.10;99.90
17381;DHT22;8808;52.478;13.378;2022-08-19T12:28:04;24.20;99.90
17381;DHT22;8808;52.478;13.378;2022-08-19T12:30:31;24.30;99.90
17381;DHT22;8808;52.478;13.378;2022-08-19T12:32:58;24.50;99.90
17381;DHT22;8808;52.478;13.378;2022-08-19T12:35:25;24.40;99.90
17381;DHT22;8808;52.478;13.378;2022-08-19T12:37:53;24.40;99.90
17381;DHT22;8808;52.478;13.378;2022-08-19T12:40:20;24.30;99.90
17381;DHT22;8808;52.478;13.378;2022-08-19T12:42:47;24.20;99.90
17381;DHT22;8808;52.478;13.378;2022-08-19T12:45:17;24.10;99.90
17381;DHT22;8808;52.478;13.378;2022-08-19T12:47:44;24.40;99.90
17381;DHT22;8808;52.478;13.378;2022-08-19T12:50:12;24.40;99.90
17381;DHT22;8808;52.478;13.378;2022-08-19T12:52:38;24.50;99.90
17381;DHT22;8808;52.478;13.378;2022-08-19T12:55:08;24.70;99.90
17381;DHT22;8808;52.478;13.378;2022-08-19T12:57:36;24.80;99.90
17381;DHT22;8808;52.478;13.378;2022-08-19T13:00:05;24.80;99.90
17381;DHT22;8808;52.478;13.378;2022-08-19T13:02:37;24.90;99.90
17381;DHT22;8808;52.478;13.378;2022-08-19T13:05:05;25.20;99.90
17381;DHT22;8808;52.478;13.378;2022-08-19T13:07:33;25.10;99.90
17381;DHT22;8808;52.478;13.378;2022-08-19T13:10:01;25.00;99.90
17381;DHT22;8808;52.478;13.378;2022-08-19T13:12:28;24.80;99.90
17381;DHT22;8808;52.478;13.378;2022-08-19T13:14:55;24.70;99.90
17381;DHT22;8808;52.478;13.378;2022-08-19T13:17:22;24.60;99.90
17381;DHT22;8808;52.478;13.378;2022-08-19T13:19:51;24.80;99.90
17381;DHT22;8808;52.478;13.378;2022-08-19T13:22:17;24.80;99.90
17381;DHT22;8808;52.478;13.378;2022-08-19T13:24:44;24.60;99.90
17381;DHT22;8808;52.478;13.378;2022-08-19T13:27:11;24.60;99.90
17381;DHT22;8808;52.478;13.378;2022-08-19T13:29:40;24.40;99.90
17381;DHT22;8808;52.478;13.378;2022-08-19T13:32:24;24.60;99.90
17381;DHT22;8808;52.478;13.378;2022-08-19T13:35:10;24.70;99.90
17381;DHT22;8808;52.478;13.378;2022-08-19T13:37:37;24.50;99.90
17381;DHT22;8808;52.478;13.378;2022-08-19T13:40:14;24.60;99.90
17381;DHT22;8808;52.478;13.378;2022-08-19T13:42:43;24.50;99.90
17381;DHT22;8808;52.478;13.378;2022-08-19T13:45:13;24.50;99.90
17381;DHT22;8808;52.478;13.378;2022-08-19T13:47:42;24.70;99.90
17381;DHT22;8808;52.478;13.378;2022-08-19T13:50:12;24.50;99.90
17381;DHT22;8808;52.478;13.378;2022-08-19T13:52:40;24.60;99.90
17381;DHT22;8808;52.478;13.378;2022-08-19T13:55:08;24.60;99.90
17381;DHT22;8808;52.478;13.378;2022-08-19T13:57:35;24.40;99.90
17381;DHT22;8808;52.478;13.378;2022-08-19T14:00:08;24.60;99.90
17381;DHT22;8808;52.478;13.378;2022-08-19T14:02:36;24.60;99.90
17381;DHT22;8808;52.478;13.378;2022-08-19T14:05:05;24.80;99.90
17381;DHT22;8808;52.478;13.378;2022-08-19T14:07:34;25.10;99.90
17381;DHT22;8808;52.478;13.378;2022-08-19T14:10:02;25.10;99.90
17381;DHT22;8808;52.478;13.378;2022-08-19T14:12:29;24.80;99.90
17381;DHT22;8808;52.478;13.378;2022-08-19T14:14:57;25.10;99.90
17381;DHT22;8808;52.478;13.378;2022-08-19T14:17:24;24.80;99.90
17381;DHT22;8808;52.478;13.378;2022-08-19T14:19:56;24.80;99.90
17381;DHT22;8808;52.478;13.378;2022-08-19T14:22:23;24.90;99.90
17381;DHT22;8808;52.478;13.378;2022-08-19T14:24:51;24.80;99.90
17381;DHT22;8808;52.478;13.378;2022-08-19T14:27:18;24.90;99.90
17381;DHT22;8808;52.478;13.378;2022-08-19T14:29:45;24.70;99.90
17381;DHT22;8808;52.478;13.378;2022-08-19T14:32:12;24.60;99.90
17381;DHT22;8808;52.478;13.378;2022-08-19T14:34:39;24.60;99.90
17381;DHT22;8808;52.478;13.378;2022-08-19T14:37:05;24.40;99.90
17381;DHT22;8808;52.478;13.378;2022-08-19T14:39:33;24.60;99.90
17381;DHT22;8808;52.478;13.378;2022-08-19T14:42:05;24.70;99.90
17381;DHT22;8808;52.478;13.378;2022-08-19T14:44:34;24.60;99.90
17381;DHT22;8808;52.478;13.378;2022-08-19T14:47:01;24.60;99.90
17381;DHT22;8808;52.478;13.378;2022-08-19T14:49:27;25.00;99.90
17381;DHT22;8808;52.478;13.378;2022-08-19T14:51:55;25.00;99.90
17381;DHT22;8808;52.478;13.378;2022-08-19T14:54:22;25.00;99.90
17381;DHT22;8808;52.478;13.378;2022-08-19T14:56:49;24.70;99.90
17381;DHT22;8808;52.478;13.378;2022-08-19T14:59:17;24.60;99.90
17381;DHT22;8808;52.478;13.378;2022-08-19T15:01:44;24.80;99.90
17381;DHT22;8808;52.478;13.378;2022-08-19T15:04:11;25.10;99.90
17381;DHT22;8808;52.478;13.378;2022-08-19T15:06:38;25.10;99.90
17381;DHT22;8808;52.478;13.378;2022-08-19T15:09:05;24.80;99.90
17381;DHT22;8808;52.478;13.378;2022-08-19T15:11:32;24.50;99.90
17381;DHT22;8808;52.478;13.378;2022-08-19T15:13:59;24.40;99.90
17381;DHT22;8808;52.478;13.378;2022-08-19T15:16:28;24.00;99.90
17381;DHT22;8808;52.478;13.378;2022-08-19T15:18:57;24.40;99.90
17381;DHT22;8808;52.478;13.378;2022-08-19T15:21:25;24.30;99.90
17381;DHT22;8808;52.478;13.378;2022-08-19T15:23:54;24.10;99.90
17381;DHT22;8808;52.478;13.378;2022-08-19T15:26:21;24.00;99.90
17381;DHT22;8808;52.478;13.378;2022-08-19T15:28:48;24.00;99.90
17381;DHT22;8808;52.478;13.378;2022-08-19T15:31:19;23.90;99.90
17381;DHT22;8808;52.478;13.378;2022-08-19T15:33:48;24.00;99.90
17381;DHT22;8808;52.478;13.378;2022-08-19T15:36:15;24.00;99.90
17381;DHT22;8808;52.478;13.378;2022-08-19T15:38:42;23.90;99.90
17381;DHT22;8808;52.478;13.378;2022-08-19T15:41:17;23.80;99.90